Iliamna Airport Iliamna US
ICAO: PAIL
IATA:
Category: Medium
Scheduled Services:

Elevation: 192 ft
TransAlt. 18000 ft.

Airport Communications:
ASOS:134.95
ATIS:134.95
ANCHORAGE CNTR:118.8
CTAF:123.6
RDO:123.6
KENAI RDO:121.2
KENAI RDO:122.2

PAIL Zoom In..

If you have problems with the map follow the link
https://www.worldairports.se/pages/airport.php?
ICAO=PAIL

Runways:

(A) RW 07 length 5086 ft width 100 ft
---- / hdg 76

(B) RW 17 length 4800 ft width 100 ft
---- / hdg 172

(C) RW 25 length 5086 ft width 100 ft
---- / hdg 256

(D) RW 35 length 4800 ft width 100 ft
---- / hdg 352

Location; PAIL
Day. 08 / Time. 05.17 Zulu
* Altimeter: 29.10
* Temperature: 01° c. 33.8°f.
* Wind from: 250° Speed 11 kn.
Dewpoint: 00° c.
Visibility: 2 Statute Miles.
Clouds: Overcast 1400 ft.
Conditions: Light Snow.Conditions: Mist.

PAIL 080517Z 25011KT 2SM -SN BR OVC014 01/00 A2910 RMK AO2 P0004 T00060000 $


Wind From 250°
Speed 11 kn.

 
 
jpsmedia worldairports.se 2019   terms of use